LTBI

Eskişehir Air Base Airport

Turkey
TAF LTBI 190740Z 1909/1918 VRB02KT 9999 SCT035
Issued Valid From Valid To
Oct-19 @ 07:40 UTC
(an hour ago)
Oct-19 @ 09:00 UTC
(5 minutes ago)
Oct-19 @ 18:00 UTC
(in 9 hours)
Oct-19 @ 09:00 to Oct-19 @ 18:00
TAF LTBI 190740Z 1909/1918 VRB02KT 9999 SCT035
Wind Visibility Clouds
Variable at 2 knots 10,000+ meters
  • Scattered at 3,500' AGL
TAF LTBI 190740Z 1909/1918 VRB02KT 9999 SCT035
Issued Oct-19 @ 07:40 UTC
(an hour ago)
Valid From Oct-19 @ 09:00 UTC
(5 minutes ago)
Valid To Oct-19 @ 18:00 UTC
(in 9 hours)
Oct-19 @ 09:00 - Oct-19 @ 18:00
Wind Visibility
Variable at 2 knots 10,000+ meters
Clouds
  • Scattered at 3,500' AGL